createdAt,value
2022-09-07T00:00:53.899Z,10.45
2022-09-07T00:03:22.519Z,10.42
2022-09-07T00:05:52.666Z,10.48
2022-09-07T00:08:23.285Z,10.37
2022-09-07T00:10:57.744Z,10.31
2022-09-07T00:13:28.305Z,10.24
2022-09-07T00:15:56.580Z,10.28
2022-09-07T00:18:25.190Z,10.21
2022-09-07T00:20:59.691Z,10.14
2022-09-07T00:23:28.784Z,10.19
2022-09-07T00:26:02.054Z,10.25
2022-09-07T00:28:31.538Z,10.16
2022-09-07T00:30:59.947Z,10.11
2022-09-07T00:33:28.448Z,9.93
2022-09-07T00:35:56.586Z,10.14
2022-09-07T00:38:24.936Z,10.10
2022-09-07T00:40:53.274Z,10.12
2022-09-07T00:43:32.941Z,9.91
2022-09-07T00:46:01.401Z,10.01
2022-09-07T00:48:33.715Z,9.96
2022-09-07T00:51:06.268Z,10.04
2022-09-07T00:53:39.944Z,9.96
2022-09-07T00:56:08.557Z,9.91
2022-09-07T00:58:41.639Z,9.85
2022-09-07T01:01:10.272Z,9.91
2022-09-07T01:03:43.191Z,9.85
2022-09-07T01:06:16.805Z,9.81
2022-09-07T01:08:47.249Z,9.79
2022-09-07T01:11:15.166Z,9.82
2022-09-07T01:13:46.970Z,9.78
2022-09-07T01:16:27.325Z,9.80
2022-09-07T01:19:10.127Z,9.74
2022-09-07T01:21:58.227Z,9.75
2022-09-07T01:24:54.591Z,9.69
2022-09-07T01:28:04.056Z,9.62
2022-09-07T01:30:35.922Z,9.54
2022-09-07T01:33:14.194Z,9.56
2022-09-07T01:35:48.846Z,9.53
2022-09-07T01:38:23.481Z,9.53
2022-09-07T01:40:58.048Z,9.52
2022-09-07T01:43:38.342Z,9.52
2022-09-07T01:46:17.561Z,9.55
2022-09-07T01:48:49.546Z,9.53
2022-09-07T01:51:20.033Z,9.53
2022-09-07T01:53:52.681Z,9.54
2022-09-07T01:56:23.328Z,9.55
2022-09-07T01:58:57.153Z,9.60
2022-09-07T02:01:29.550Z,9.54
2022-09-07T02:04:03.958Z,9.59
2022-09-07T02:06:39.881Z,9.60
2022-09-07T02:09:14.186Z,9.59
2022-09-07T02:11:46.936Z,9.50
2022-09-07T02:14:23.015Z,9.64
2022-09-07T02:16:58.077Z,9.57
2022-09-07T02:19:29.836Z,9.50
2022-09-07T02:22:01.698Z,9.44
2022-09-07T02:24:35.259Z,9.43
2022-09-07T02:27:05.845Z,9.47
2022-09-07T02:29:35.494Z,9.45
2022-09-07T02:32:04.039Z,9.45
2022-09-07T02:34:32.565Z,9.46
2022-09-07T02:37:03.922Z,9.49
2022-09-07T02:39:32.232Z,9.41
2022-09-07T02:42:00.237Z,9.43
2022-09-07T02:44:34.624Z,9.45
2022-09-07T02:47:16.897Z,9.42
2022-09-07T02:50:01.246Z,9.45
2022-09-07T02:52:40.957Z,9.46
2022-09-07T02:55:16.881Z,9.48
2022-09-07T02:57:53.965Z,9.48
2022-09-07T03:00:26.033Z,9.46
2022-09-07T03:03:07.605Z,9.40
2022-09-07T03:05:43.446Z,9.46
2022-09-07T03:08:15.049Z,9.36
2022-09-07T03:10:44.681Z,9.37
2022-09-07T03:13:21.551Z,9.20
2022-09-07T03:15:54.963Z,9.40
2022-09-07T03:18:25.883Z,9.35
2022-09-07T03:20:54.536Z,9.25
2022-09-07T03:23:22.719Z,9.25
2022-09-07T03:25:51.093Z,9.27
2022-09-07T03:28:19.272Z,9.25
2022-09-07T03:30:48.001Z,9.13
2022-09-07T03:33:16.980Z,9.11
2022-09-07T03:35:47.278Z,9.08
2022-09-07T03:38:15.188Z,9.12
2022-09-07T03:40:43.022Z,9.01
2022-09-07T03:43:11.062Z,8.91
2022-09-07T03:45:38.826Z,8.87
2022-09-07T03:48:06.813Z,8.81
2022-09-07T03:50:34.920Z,8.79
2022-09-07T03:53:04.073Z,8.77
2022-09-07T03:55:31.844Z,8.81
2022-09-07T03:57:59.876Z,8.71
2022-09-07T04:00:27.662Z,8.65
2022-09-07T04:02:55.542Z,8.60
2022-09-07T04:05:24.004Z,8.62
2022-09-07T04:07:52.494Z,8.61
2022-09-07T04:10:21.775Z,8.56
2022-09-07T04:12:50.533Z,8.56
2022-09-07T04:15:18.320Z,8.50
2022-09-07T04:17:46.097Z,8.46
2022-09-07T04:20:14.253Z,8.41
2022-09-07T04:22:42.061Z,8.36
2022-09-07T04:25:10.224Z,8.33
2022-09-07T04:27:39.788Z,8.39
2022-09-07T04:30:08.676Z,8.42
2022-09-07T04:32:36.436Z,8.39
2022-09-07T04:35:04.637Z,8.38
2022-09-07T04:37:32.400Z,8.40
2022-09-07T04:40:00.250Z,8.43
2022-09-07T04:42:28.349Z,8.46
2022-09-07T04:44:57.829Z,8.42
2022-09-07T04:47:26.138Z,8.43
2022-09-07T04:49:54.229Z,8.52
2022-09-07T04:52:22.186Z,8.61
2022-09-07T04:54:50.600Z,8.60
2022-09-07T04:57:21.633Z,8.68
2022-09-07T04:59:51.911Z,8.62
2022-09-07T05:02:22.130Z,8.83
2022-09-07T05:04:53.357Z,8.94
2022-09-07T05:07:21.514Z,9.07
2022-09-07T05:09:52.819Z,9.19
2022-09-07T05:12:20.604Z,9.24
2022-09-07T05:14:49.104Z,9.24
2022-09-07T05:17:17.105Z,9.26
2022-09-07T05:19:46.737Z,9.32
2022-09-07T05:22:15.313Z,9.27
2022-09-07T05:24:43.054Z,9.36
2022-09-07T05:27:10.909Z,9.54
2022-09-07T05:32:27.043Z,9.65
2022-09-07T05:34:57.330Z,9.69
2022-09-07T05:37:25.130Z,9.72
2022-09-07T05:39:56.272Z,9.82
2022-09-07T05:42:24.358Z,9.88
2022-09-07T05:44:53.094Z,9.92
2022-09-07T05:47:20.857Z,10.00
2022-09-07T05:49:49.829Z,10.10
2022-09-07T05:52:20.505Z,10.16
2022-09-07T05:54:49.047Z,10.20
2022-09-07T05:57:17.276Z,10.27
2022-09-07T06:03:50.862Z,10.52
2022-09-07T06:06:19.856Z,10.48
2022-09-07T06:08:50.341Z,10.51
2022-09-07T06:11:20.090Z,10.64
2022-09-07T06:13:48.873Z,10.73
2022-09-07T06:16:18.375Z,10.76
2022-09-07T06:18:48.018Z,10.89
2022-09-07T06:21:17.939Z,11.10
2022-09-07T06:23:46.790Z,11.10
2022-09-07T06:26:17.316Z,11.22
2022-09-07T06:28:49.657Z,11.30
2022-09-07T06:31:20.811Z,11.41
2022-09-07T06:33:49.587Z,11.61
2022-09-07T06:36:19.750Z,11.65
2022-09-07T06:38:48.286Z,11.69
2022-09-07T06:44:07.528Z,11.94
2022-09-07T06:49:23.868Z,12.07
2022-09-07T06:51:52.184Z,12.26
2022-09-07T06:57:09.914Z,12.50
2022-09-07T06:59:38.665Z,12.50
2022-09-07T07:02:07.015Z,12.54
2022-09-07T07:04:40.212Z,12.69
2022-09-07T07:07:11.670Z,12.84
2022-09-07T07:09:39.862Z,12.99
2022-09-07T07:12:09.613Z,13.15
2022-09-07T07:14:41.066Z,13.26
2022-09-07T07:17:12.549Z,13.28
2022-09-07T07:19:40.321Z,13.25
2022-09-07T07:22:23.942Z,13.44
2022-09-07T07:24:56.148Z,13.66
2022-09-07T07:27:25.214Z,13.70
2022-09-07T07:29:53.872Z,13.67
2022-09-07T07:32:22.005Z,13.32
2022-09-07T07:34:50.052Z,13.62
2022-09-07T07:37:17.781Z,13.81
2022-09-07T07:42:38.373Z,14.16
2022-09-07T07:47:55.207Z,14.22
2022-09-07T07:50:31.732Z,14.49
2022-09-07T07:55:48.804Z,14.78
2022-09-07T07:58:18.312Z,14.94
2022-09-07T08:00:55.635Z,15.14
2022-09-07T08:03:25.863Z,15.34
2022-09-07T08:05:53.935Z,15.58
2022-09-07T08:08:22.942Z,15.60
2022-09-07T08:10:51.181Z,15.58
2022-09-07T08:13:21.344Z,15.72
2022-09-07T08:15:49.293Z,15.99
2022-09-07T08:18:18.617Z,16.11
2022-09-07T08:20:46.392Z,16.33
2022-09-07T08:23:15.188Z,16.40
2022-09-07T08:25:51.492Z,16.49
2022-09-07T08:28:21.202Z,16.69
2022-09-07T08:30:49.357Z,16.96
2022-09-07T08:33:17.476Z,17.11
2022-09-07T08:35:55.502Z,17.39
2022-09-07T08:38:23.656Z,17.52
2022-09-07T08:40:51.970Z,17.71
2022-09-07T08:43:47.130Z,17.95
2022-09-07T08:46:27.633Z,17.99
2022-09-07T08:48:58.312Z,18.09
2022-09-07T08:51:37.226Z,18.23
2022-09-07T08:54:06.971Z,18.38
2022-09-07T08:56:39.287Z,18.45
2022-09-07T08:59:19.463Z,18.58
2022-09-07T09:02:27.024Z,18.45
2022-09-07T09:05:16.260Z,18.65
2022-09-07T09:07:31.717Z,18.79
2022-09-07T09:10:12.932Z,19.13
2022-09-07T09:12:56.110Z,19.36
2022-09-07T09:15:35.457Z,19.36
2022-09-07T09:18:14.512Z,19.52
2022-09-07T09:20:46.900Z,19.60
2022-09-07T09:23:17.138Z,19.90
2022-09-07T09:25:52.849Z,19.99
2022-09-07T09:28:20.925Z,20.07
2022-09-07T09:30:50.342Z,19.98
2022-09-07T09:33:20.887Z,20.06
2022-09-07T09:35:50.989Z,20.28
2022-09-07T09:38:31.911Z,20.34
2022-09-07T09:41:04.124Z,20.35
2022-09-07T09:43:44.487Z,20.72
2022-09-07T09:46:23.806Z,20.76
2022-09-07T09:48:56.846Z,20.90
2022-09-07T09:54:24.563Z,21.01
2022-09-07T09:56:53.376Z,21.21
2022-09-07T10:05:28.520Z,22.06
2022-09-07T10:07:57.263Z,22.37
2022-09-07T10:10:27.301Z,22.45
2022-09-07T10:12:56.332Z,22.50
2022-09-07T10:15:39.638Z,22.57
2022-09-07T10:18:19.385Z,22.39
2022-09-07T10:20:47.289Z,22.71
2022-09-07T10:23:23.175Z,23.03
2022-09-07T10:25:51.345Z,22.94
2022-09-07T10:28:21.151Z,23.08
2022-09-07T10:31:14.686Z,23.14
2022-09-07T10:36:45.120Z,23.70
2022-09-07T10:39:17.136Z,23.68
2022-09-07T10:41:52.629Z,23.68
2022-09-07T10:44:34.130Z,23.88
2022-09-07T10:47:05.985Z,23.81
2022-09-07T10:50:21.790Z,24.00
2022-09-07T10:52:42.741Z,24.03
2022-09-07T10:55:16.806Z,24.02
2022-09-07T10:57:58.412Z,24.29
2022-09-07T11:00:31.493Z,24.42
2022-09-07T11:03:25.343Z,24.62
2022-09-07T11:06:06.408Z,25.01
2022-09-07T11:14:28.346Z,25.02
2022-09-07T11:17:01.114Z,25.24
2022-09-07T11:19:35.941Z,24.81
2022-09-07T11:22:18.218Z,25.37
2022-09-07T11:25:29.065Z,25.73
2022-09-07T11:27:43.443Z,25.96
2022-09-07T11:30:19.983Z,25.82
2022-09-07T11:32:56.369Z,26.19
2022-09-07T11:35:35.262Z,26.51
2022-09-07T11:38:14.735Z,26.32
2022-09-07T11:40:51.205Z,26.40
2022-09-07T11:43:23.598Z,26.26
2022-09-07T11:45:55.430Z,26.16
2022-09-07T11:48:30.721Z,26.38
2022-09-07T11:51:04.161Z,26.56
2022-09-07T11:53:37.845Z,26.55
2022-09-07T11:56:13.127Z,26.64
2022-09-07T11:58:58.449Z,26.84
2022-09-07T12:01:39.406Z,26.92
2022-09-07T12:04:29.625Z,27.21
2022-09-07T12:07:26.933Z,27.57
2022-09-07T12:10:23.511Z,28.03
2022-09-07T12:13:06.099Z,28.08
2022-09-07T12:15:45.077Z,28.18
2022-09-07T12:18:27.630Z,28.34
2022-09-07T12:20:55.993Z,28.45
2022-09-07T12:23:30.056Z,28.52
2022-09-07T12:26:35.459Z,28.22
2022-09-07T12:29:21.474Z,28.52
2022-09-07T12:32:07.853Z,28.53
2022-09-07T12:35:01.582Z,28.28
2022-09-07T12:37:43.343Z,28.18
2022-09-07T12:40:29.511Z,28.04
2022-09-07T12:43:31.245Z,28.42
2022-09-07T12:46:01.716Z,28.19
2022-09-07T12:48:44.348Z,28.24
2022-09-07T12:54:20.322Z,28.29
2022-09-07T13:00:05.087Z,28.44
2022-09-07T13:02:55.307Z,28.40
2022-09-07T13:05:41.576Z,28.12
2022-09-07T13:08:34.664Z,28.17
2022-09-07T13:11:17.831Z,28.24
2022-09-07T13:14:06.269Z,27.96
2022-09-07T13:20:04.277Z,27.88
2022-09-07T13:23:08.837Z,28.00
2022-09-07T13:25:46.325Z,27.67
2022-09-07T13:28:25.383Z,27.66
2022-09-07T13:31:07.408Z,27.87
2022-09-07T13:33:48.090Z,27.84
2022-09-07T13:36:27.129Z,27.79
2022-09-07T13:38:56.688Z,27.77
2022-09-07T13:41:38.077Z,27.52
2022-09-07T13:44:06.545Z,27.67
2022-09-07T13:46:51.738Z,27.47
2022-09-07T13:49:35.294Z,27.48
2022-09-07T13:52:08.317Z,27.15
2022-09-07T13:54:51.664Z,27.09
2022-09-07T13:57:27.378Z,27.07
2022-09-07T13:59:55.987Z,26.89
2022-09-07T14:02:27.054Z,26.61
2022-09-07T14:04:57.281Z,26.45
2022-09-07T14:07:27.882Z,26.48
2022-09-07T14:10:12.956Z,26.52
2022-09-07T14:12:46.099Z,26.55
2022-09-07T14:15:22.897Z,26.43
2022-09-07T14:18:01.514Z,26.24
2022-09-07T14:20:29.541Z,26.34
2022-09-07T14:22:57.645Z,26.07
2022-09-07T14:25:27.176Z,26.04
2022-09-07T14:27:56.870Z,25.92
2022-09-07T14:30:28.974Z,26.03
2022-09-07T14:33:00.851Z,26.20
2022-09-07T14:35:34.426Z,26.14
2022-09-07T14:38:08.267Z,26.20
2022-09-07T14:40:38.073Z,26.30
2022-09-07T14:43:27.945Z,25.98
2022-09-07T14:46:13.142Z,26.08
2022-09-07T14:48:42.043Z,26.08
2022-09-07T14:51:29.504Z,26.20
2022-09-07T14:54:00.805Z,26.43
2022-09-07T14:56:33.782Z,26.75
2022-09-07T14:59:01.520Z,26.82
2022-09-07T15:01:37.895Z,26.99
2022-09-07T15:04:17.896Z,27.08
2022-09-07T15:07:02.214Z,27.19
2022-09-07T15:09:35.897Z,27.23
2022-09-07T15:12:17.610Z,27.56
2022-09-07T15:14:45.850Z,27.29
2022-09-07T15:20:38.679Z,27.38
2022-09-07T15:23:11.189Z,27.47
2022-09-07T15:25:40.717Z,27.51
2022-09-07T15:33:59.913Z,27.64
2022-09-07T15:36:28.818Z,27.24
2022-09-07T15:39:04.400Z,27.39
2022-09-07T15:41:32.713Z,27.29
2022-09-07T15:44:01.754Z,27.55
2022-09-07T15:46:29.549Z,27.55
2022-09-07T15:48:58.276Z,27.18
2022-09-07T15:54:16.638Z,26.98
2022-09-07T15:57:48.422Z,26.84
2022-09-07T15:59:34.867Z,26.68
2022-09-07T16:02:02.819Z,26.62
2022-09-07T16:04:31.198Z,26.33
2022-09-07T16:07:01.709Z,26.08
2022-09-07T16:09:29.567Z,25.58
2022-09-07T16:12:59.937Z,25.10
2022-09-07T16:14:47.249Z,24.69
2022-09-07T16:20:03.940Z,24.18
2022-09-07T16:25:20.042Z,23.68
2022-09-07T16:27:47.984Z,23.47
2022-09-07T16:30:17.088Z,23.24
2022-09-07T16:32:45.269Z,23.03
2022-09-07T16:35:13.161Z,22.90
2022-09-07T16:38:43.726Z,22.74
2022-09-07T16:40:29.230Z,22.48
2022-09-07T16:42:56.932Z,22.38
2022-09-07T16:48:16.336Z,21.92
2022-09-07T16:51:00.393Z,21.71
2022-09-07T16:53:30.046Z,21.36
2022-09-07T16:56:01.614Z,21.25
2022-09-07T16:58:38.288Z,21.37
2022-09-07T17:01:09.360Z,21.23
2022-09-07T17:03:37.576Z,21.29
2022-09-07T17:06:07.625Z,21.26
2022-09-07T17:08:36.905Z,21.12
2022-09-07T17:11:06.757Z,21.12
2022-09-07T17:13:35.510Z,21.03
2022-09-07T17:16:04.136Z,20.95
2022-09-07T17:21:22.826Z,20.62
2022-09-07T17:23:55.214Z,20.48
2022-09-07T17:26:27.044Z,20.42
2022-09-07T17:29:00.080Z,20.41
2022-09-07T17:34:20.830Z,20.44
2022-09-07T17:36:48.810Z,20.44
2022-09-07T17:39:18.805Z,20.15
2022-09-07T17:41:47.714Z,20.20
2022-09-07T17:44:16.576Z,20.04
2022-09-07T17:46:44.790Z,20.08
2022-09-07T17:49:14.351Z,20.11
2022-09-07T17:51:43.990Z,20.05
2022-09-07T17:54:13.763Z,19.87
2022-09-07T17:56:42.404Z,19.82
2022-09-07T18:01:59.653Z,19.70
2022-09-07T18:04:28.529Z,19.66
2022-09-07T18:06:57.917Z,19.54
2022-09-07T18:09:25.725Z,19.38
2022-09-07T18:11:53.838Z,19.31
2022-09-07T18:14:21.577Z,19.29
2022-09-07T18:16:51.094Z,19.35
2022-09-07T18:19:19.805Z,19.38
2022-09-07T18:21:48.641Z,19.38
2022-09-07T18:24:21.005Z,19.20
2022-09-07T18:26:52.089Z,19.04
2022-09-07T18:29:37.523Z,19.08
2022-09-07T18:32:08.925Z,18.95
2022-09-07T18:34:41.143Z,18.84
2022-09-07T18:37:12.046Z,18.92
2022-09-07T18:39:41.618Z,19.00
2022-09-07T18:42:10.025Z,18.83
2022-09-07T18:47:28.863Z,18.77
2022-09-07T18:49:58.964Z,18.66
2022-09-07T18:55:17.153Z,18.58
2022-09-07T18:57:45.339Z,18.54
2022-09-07T19:00:14.047Z,18.52
2022-09-07T19:02:42.255Z,18.32
2022-09-07T19:08:03.135Z,18.27
2022-09-07T19:10:35.041Z,18.25
2022-09-07T19:13:03.842Z,18.23
2022-09-07T19:15:37.129Z,18.29
2022-09-07T19:18:08.293Z,18.22
2022-09-07T19:20:37.025Z,18.18
2022-09-07T19:23:05.151Z,17.89
2022-09-07T19:25:34.702Z,17.92
2022-09-07T19:28:02.502Z,17.94
2022-09-07T19:30:30.422Z,18.02
2022-09-07T19:33:03.364Z,17.82
2022-09-07T19:35:36.059Z,17.83
2022-09-07T19:38:04.672Z,17.80
2022-09-07T19:40:33.913Z,17.69
2022-09-07T19:43:01.840Z,17.62
2022-09-07T19:45:30.202Z,17.63
2022-09-07T19:47:58.054Z,17.69
2022-09-07T19:50:25.956Z,17.68
2022-09-07T19:52:54.084Z,17.59
2022-09-07T19:55:21.785Z,17.48
2022-09-07T19:57:51.994Z,17.32
2022-09-07T20:00:20.277Z,17.22
2022-09-07T20:02:49.162Z,17.10
2022-09-07T20:05:17.633Z,16.99
2022-09-07T20:07:45.893Z,16.98
2022-09-07T20:10:13.749Z,16.95
2022-09-07T20:12:41.689Z,16.93
2022-09-07T20:15:11.602Z,16.84
2022-09-07T20:17:39.444Z,16.85
2022-09-07T20:20:08.271Z,16.84
2022-09-07T20:22:36.301Z,16.83
2022-09-07T20:25:04.413Z,16.83
2022-09-07T20:27:35.659Z,16.82
2022-09-07T20:30:04.144Z,16.79
2022-09-07T20:32:33.229Z,16.79
2022-09-07T20:35:01.419Z,16.72
2022-09-07T20:37:29.482Z,16.65
2022-09-07T20:39:57.260Z,16.58
2022-09-07T20:42:25.021Z,16.50
2022-09-07T20:44:53.508Z,16.50
2022-09-07T20:47:21.283Z,16.47
2022-09-07T20:49:52.150Z,16.45
2022-09-07T20:52:20.421Z,16.41
2022-09-07T20:54:48.129Z,16.40
2022-09-07T20:57:15.863Z,16.36
2022-09-07T20:59:43.983Z,16.31
2022-09-07T21:02:11.726Z,16.25
2022-09-07T21:04:39.931Z,16.17
2022-09-07T21:07:09.665Z,16.13
2022-09-07T21:09:37.344Z,16.09
2022-09-07T21:12:05.277Z,16.09
2022-09-07T21:14:33.281Z,16.04
2022-09-07T21:17:01.080Z,16.04
2022-09-07T21:19:28.842Z,16.02
2022-09-07T21:21:57.063Z,15.99
2022-09-07T21:24:26.421Z,16.00
2022-09-07T21:26:54.222Z,15.84
2022-09-07T21:29:24.341Z,15.93
2022-09-07T21:31:54.236Z,15.84
2022-09-07T21:34:22.521Z,15.72
2022-09-07T21:36:50.570Z,15.55
2022-09-07T21:39:19.180Z,15.48
2022-09-07T21:41:48.378Z,15.41
2022-09-07T21:44:17.298Z,15.35
2022-09-07T21:46:45.519Z,15.30
2022-09-07T21:49:13.776Z,15.27
2022-09-07T21:51:42.088Z,15.22
2022-09-07T21:54:10.572Z,15.14
2022-09-07T21:56:41.014Z,15.15
2022-09-07T21:59:12.828Z,15.03
2022-09-07T22:01:41.154Z,14.89
2022-09-07T22:04:09.061Z,14.86
2022-09-07T22:06:37.620Z,14.79
2022-09-07T22:09:05.932Z,14.82
2022-09-07T22:11:33.809Z,14.83
2022-09-07T22:14:04.411Z,14.71
2022-09-07T22:16:35.198Z,14.61
2022-09-07T22:19:03.453Z,14.45
2022-09-07T22:21:32.050Z,14.30
2022-09-07T22:24:02.061Z,14.20
2022-09-07T22:26:32.480Z,14.16
2022-09-07T22:29:01.074Z,14.10
2022-09-07T22:31:31.700Z,14.08
2022-09-07T22:34:55.510Z,14.07
2022-09-07T22:37:24.791Z,14.06
2022-09-07T22:39:53.766Z,14.08
2022-09-07T22:42:21.424Z,14.11
2022-09-07T22:44:49.088Z,14.07
2022-09-07T22:47:17.093Z,14.01
2022-09-07T22:49:44.768Z,14.01
2022-09-07T22:52:12.622Z,14.00
2022-09-07T22:54:41.917Z,14.01
2022-09-07T22:57:09.969Z,14.03
2022-09-07T22:59:37.850Z,14.02
2022-09-07T23:02:05.868Z,14.03
2022-09-07T23:04:33.657Z,13.98
2022-09-07T23:07:01.499Z,14.01
2022-09-07T23:09:29.721Z,14.03
2022-09-07T23:11:58.706Z,14.06
2022-09-07T23:14:26.526Z,14.06
2022-09-07T23:16:54.670Z,14.12
2022-09-07T23:19:22.424Z,14.08
2022-09-07T23:21:50.109Z,13.97
2022-09-07T23:24:19.311Z,13.85
2022-09-07T23:26:47.554Z,13.79
2022-09-07T23:29:16.942Z,13.75
2022-09-07T23:31:46.407Z,13.71
2022-09-07T23:34:14.164Z,13.71
2022-09-07T23:36:41.944Z,13.71
2022-09-07T23:39:10.521Z,13.68
2022-09-07T23:41:38.169Z,13.77
2022-09-07T23:44:06.151Z,13.64
2022-09-07T23:46:36.042Z,13.43
2022-09-07T23:49:03.948Z,13.28
2022-09-07T23:51:31.631Z,13.19
2022-09-07T23:53:59.752Z,13.09
2022-09-07T23:56:27.992Z,13.09
2022-09-07T23:58:55.663Z,13.06
